Time,TemperatureF,DewpointF,PressureIn,WindDirection,WindDirectionDegrees,WindSpeedMPH,WindSpeedGustMPH,Humidity,HourlyPrecipIn,Conditions,Clouds,dailyrainin,SolarRadiationWatts/m^2,SoftwareType,DateUTC
2013-04-11 00:02:00,15.0,7.0,-100.00,NNE,21,6.0,19.0,69,0.00,,,0.07,0.000000,,2013-04-11 06:02:00,
2013-04-11 00:32:00,16.0,5.0,-100.00,NNE,20,10.0,20.0,61,0.00,,,0.07,0.000000,,2013-04-11 06:32:00,
2013-04-11 00:42:00,16.0,5.0,-100.00,NNE,20,10.0,20.0,61,0.00,,,0.07,0.000000,,2013-04-11 06:42:00,
2013-04-11 00:52:00,16.0,5.0,-100.00,NNE,20,10.0,20.0,61,0.00,,,0.07,0.000000,,2013-04-11 06:52:00,
2013-04-11 01:02:00,16.0,5.0,-100.00,NNE,20,10.0,20.0,61,0.00,,,0.07,0.000000,,2013-04-11 07:02:00,
2013-04-11 01:32:00,18.0,8.0,-100.00,NNE,20,9.0,22.0,65,0.00,,,0.07,0.000000,,2013-04-11 07:32:00,
2013-04-11 01:43:00,18.0,8.0,-100.00,NNE,20,9.0,22.0,65,0.00,,,0.07,0.000000,,2013-04-11 07:43:00,
2013-04-11 01:52:00,18.0,8.0,-100.00,NNE,20,9.0,22.0,65,0.00,,,0.07,0.000000,,2013-04-11 07:52:00,
2013-04-11 02:03:00,18.0,8.0,-100.00,NNE,20,9.0,22.0,65,0.00,,,0.07,0.000000,,2013-04-11 08:03:00,
2013-04-11 02:33:00,19.0,10.0,-100.00,North,8,7.0,19.0,66,0.00,,,0.07,0.000000,,2013-04-11 08:33:00,
2013-04-11 02:43:00,19.0,10.0,-100.00,North,8,7.0,19.0,66,0.00,,,0.07,0.000000,,2013-04-11 08:43:00,
2013-04-11 02:52:00,19.0,10.0,-100.00,North,8,7.0,19.0,66,0.00,,,0.07,0.000000,,2013-04-11 08:52:00,
2013-04-11 03:02:00,19.0,10.0,-100.00,North,8,7.0,19.0,66,0.00,,,0.07,0.000000,,2013-04-11 09:02:00,
2013-04-11 03:33:00,20.0,11.0,-100.00,North,8,8.0,20.0,68,0.00,,,0.07,0.000000,,2013-04-11 09:33:00,
2013-04-11 03:43:00,20.0,11.0,-100.00,North,8,8.0,20.0,68,0.00,,,0.07,0.000000,,2013-04-11 09:43:00,
2013-04-11 03:53:00,20.0,11.0,-100.00,North,8,8.0,20.0,68,0.00,,,0.07,0.000000,,2013-04-11 09:53:00,
2013-04-11 04:02:00,20.0,11.0,-100.00,North,8,8.0,20.0,68,0.00,,,0.07,0.000000,,2013-04-11 10:02:00,
2013-04-11 04:32:00,20.0,12.0,-100.00,North,8,10.0,23.0,71,0.00,,,0.07,0.000000,,2013-04-11 10:32:00,
2013-04-11 04:42:00,20.0,12.0,-100.00,North,8,10.0,23.0,71,0.00,,,0.07,0.000000,,2013-04-11 10:42:00,
2013-04-11 04:52:00,20.0,12.0,-100.00,North,8,10.0,23.0,71,0.00,,,0.07,0.000000,,2013-04-11 10:52:00,
2013-04-11 05:02:00,20.0,12.0,-100.00,North,8,10.0,23.0,71,0.00,,,0.07,0.000000,,2013-04-11 11:02:00,
2013-04-11 05:32:00,21.0,13.0,-100.00,North,8,7.0,22.0,72,0.00,,,-99.99,0.000000,,2013-04-11 11:32:00,
2013-04-11 05:43:00,21.0,13.0,-100.00,North,8,7.0,22.0,72,0.00,,,-99.99,0.000000,,2013-04-11 11:43:00,
2013-04-11 05:52:00,21.0,13.0,-100.00,North,8,7.0,22.0,72,0.00,,,-99.99,0.000000,,2013-04-11 11:52:00,
2013-04-11 06:02:00,21.0,13.0,-100.00,North,8,7.0,22.0,72,0.00,,,-99.99,0.000000,,2013-04-11 12:02:00,
2013-04-11 06:32:00,21.0,13.0,-100.00,North,358,6.0,19.0,72,0.00,,,-99.99,0.000000,,2013-04-11 12:32:00,
2013-04-11 06:43:00,21.0,13.0,-100.00,North,358,6.0,19.0,72,0.00,,,-99.99,0.000000,,2013-04-11 12:43:00,
2013-04-11 06:52:00,21.0,13.0,-100.00,North,358,6.0,19.0,72,0.00,,,-99.99,0.000000,,2013-04-11 12:52:00,
2013-04-11 07:02:00,21.0,13.0,-100.00,North,358,6.0,19.0,72,0.00,,,-99.99,0.000000,,2013-04-11 13:02:00,
2013-04-11 07:32:00,20.0,14.0,-100.00,NE,35,6.0,12.0,76,0.00,,,-99.99,28.000000,,2013-04-11 13:32:00,
2013-04-11 07:43:00,20.0,14.0,-100.00,NE,35,6.0,12.0,76,0.00,,,-99.99,28.000000,,2013-04-11 13:43:00,
2013-04-11 07:54:00,20.0,14.0,-100.00,NE,35,6.0,12.0,76,0.00,,,-99.99,28.000000,,2013-04-11 13:54:00,
2013-04-11 08:02:00,20.0,14.0,-100.00,NE,35,6.0,12.0,76,0.00,,,-99.99,28.000000,,2013-04-11 14:02:00,
2013-04-11 08:33:00,26.0,16.0,-100.00,NNE,13,8.0,18.0,66,0.00,,,0.07,192.000000,,2013-04-11 14:33:00,
2013-04-11 08:43:00,26.0,16.0,-100.00,NNE,13,8.0,18.0,66,0.00,,,0.07,192.000000,,2013-04-11 14:43:00,
2013-04-11 08:53:00,26.0,16.0,-100.00,NNE,13,8.0,18.0,66,0.00,,,0.07,192.000000,,2013-04-11 14:53:00,
2013-04-11 09:02:00,26.0,16.0,-100.00,NNE,13,8.0,18.0,66,0.00,,,0.07,192.000000,,2013-04-11 15:02:00,
2013-04-11 11:33:00,37.0,18.0,-100.00,NNW,332,11.0,24.0,45,-99.99,,,0.04,989.000000,,2013-04-11 17:33:00,
2013-04-11 11:43:00,37.0,18.0,-100.00,NNW,332,11.0,24.0,45,-99.99,,,0.04,989.000000,,2013-04-11 17:43:00,
2013-04-11 11:53:00,37.0,18.0,-100.00,NNW,332,11.0,24.0,45,-99.99,,,0.04,989.000000,,2013-04-11 17:53:00,
2013-04-11 12:03:00,37.0,18.0,-100.00,NNW,332,11.0,24.0,45,-99.99,,,0.04,989.000000,,2013-04-11 18:03:00,
2013-04-11 12:33:00,37.0,19.0,-100.00,North,10,12.0,26.0,48,0.00,,,0.02,1094.000000,,2013-04-11 18:33:00,
2013-04-11 12:43:00,37.0,19.0,-100.00,North,10,12.0,26.0,48,0.00,,,0.02,1094.000000,,2013-04-11 18:43:00,
2013-04-11 12:53:00,37.0,19.0,-100.00,North,10,12.0,26.0,48,0.00,,,0.02,1094.000000,,2013-04-11 18:53:00,
2013-04-11 13:03:00,37.0,19.0,-100.00,North,10,12.0,26.0,48,0.00,,,0.02,1094.000000,,2013-04-11 19:03:00,
2013-04-11 13:33:00,35.0,22.0,-100.00,North,356,10.0,29.0,58,0.00,,,0.01,773.000000,,2013-04-11 19:33:00,
2013-04-11 13:43:00,35.0,22.0,-100.00,North,356,10.0,29.0,58,0.00,,,0.01,773.000000,,2013-04-11 19:43:00,
2013-04-11 13:53:00,35.0,22.0,-100.00,North,356,10.0,29.0,58,0.00,,,0.01,773.000000,,2013-04-11 19:53:00,
2013-04-11 14:02:00,35.0,22.0,-100.00,North,356,10.0,29.0,58,0.00,,,0.01,773.000000,,2013-04-11 20:02:00,
2013-04-11 14:34:00,34.0,19.0,-100.00,North,349,9.0,24.0,53,0.00,,,0.00,581.000000,,2013-04-11 20:34:00,
2013-04-11 14:43:00,34.0,19.0,-100.00,North,349,9.0,24.0,53,0.00,,,0.00,581.000000,,2013-04-11 20:43:00,
2013-04-11 14:52:00,34.0,19.0,-100.00,North,349,9.0,24.0,53,0.00,,,0.00,581.000000,,2013-04-11 20:52:00,
2013-04-11 15:03:00,34.0,19.0,-100.00,North,349,9.0,24.0,53,0.00,,,0.00,581.000000,,2013-04-11 21:03:00,
2013-04-11 15:33:00,36.0,20.0,-100.00,NNW,343,8.0,21.0,51,0.00,,,0.00,635.000000,,2013-04-11 21:33:00,
2013-04-11 15:43:00,36.0,20.0,-100.00,NNW,343,8.0,21.0,51,0.00,,,0.00,635.000000,,2013-04-11 21:43:00,
2013-04-11 15:54:00,36.0,20.0,-100.00,NNW,343,8.0,21.0,51,0.00,,,0.00,635.000000,,2013-04-11 21:54:00,
2013-04-11 16:03:00,36.0,20.0,-100.00,NNW,343,8.0,21.0,51,0.00,,,0.00,635.000000,,2013-04-11 22:03:00,
2013-04-11 16:33:00,38.0,16.0,-100.00,West,261,6.0,17.0,41,0.00,,,0.00,544.000000,,2013-04-11 22:33:00,
2013-04-11 16:44:00,38.0,16.0,-100.00,West,261,6.0,17.0,41,0.00,,,0.00,544.000000,,2013-04-11 22:44:00,
2013-04-11 16:53:00,38.0,16.0,-100.00,West,261,6.0,17.0,41,0.00,,,0.00,544.000000,,2013-04-11 22:53:00,
2013-04-11 17:03:00,38.0,16.0,-100.00,West,261,6.0,17.0,41,0.00,,,0.00,544.000000,,2013-04-11 23:03:00,
2013-04-11 17:33:00,35.0,15.0,-100.00,NNW,347,5.0,14.0,44,0.00,,,0.00,309.000000,,2013-04-11 23:33:00,
2013-04-11 17:43:00,35.0,15.0,-100.00,NNW,347,5.0,14.0,44,0.00,,,0.00,309.000000,,2013-04-11 23:43:00,
2013-04-11 17:53:00,35.0,15.0,-100.00,NNW,347,5.0,14.0,44,0.00,,,0.00,309.000000,,2013-04-11 23:53:00,
2013-04-11 18:02:00,35.0,15.0,-100.00,NNW,347,5.0,14.0,44,0.00,,,0.00,309.000000,,2013-04-12 00:02:00,
2013-04-11 19:33:00,32.0,18.0,-100.00,NNW,348,5.0,11.0,56,-99.99,,,0.00,45.000000,,2013-04-12 01:33:00,
2013-04-11 19:42:00,32.0,18.0,-100.00,NNW,348,5.0,11.0,56,-99.99,,,0.00,45.000000,,2013-04-12 01:42:00,
2013-04-11 19:52:00,32.0,18.0,-100.00,NNW,348,5.0,11.0,56,-99.99,,,0.00,45.000000,,2013-04-12 01:52:00,
2013-04-11 20:03:00,32.0,18.0,-100.00,NNW,348,5.0,11.0,56,-99.99,,,0.00,45.000000,,2013-04-12 02:03:00,
2013-04-11 20:32:00,29.0,21.0,-100.00,NNE,12,6.0,12.0,73,0.00,,,0.00,8.000000,,2013-04-12 02:32:00,
2013-04-11 20:42:00,29.0,21.0,-100.00,NNE,12,6.0,12.0,73,0.00,,,0.00,8.000000,,2013-04-12 02:42:00,
2013-04-11 20:52:00,29.0,21.0,-100.00,NNE,12,6.0,12.0,73,0.00,,,0.00,8.000000,,2013-04-12 02:52:00,
2013-04-11 21:02:00,29.0,21.0,-100.00,NNE,12,6.0,12.0,73,0.00,,,0.00,8.000000,,2013-04-12 03:02:00,
2013-04-11 21:33:00,28.0,21.0,-100.00,North,353,4.0,12.0,76,0.00,,,0.00,0.000000,,2013-04-12 03:33:00,
2013-04-11 21:43:00,28.0,21.0,-100.00,North,353,4.0,12.0,76,0.00,,,0.00,0.000000,,2013-04-12 03:43:00,
2013-04-11 21:53:00,28.0,21.0,-100.00,North,353,4.0,12.0,76,0.00,,,0.00,0.000000,,2013-04-12 03:53:00,
2013-04-11 22:03:00,28.0,21.0,-100.00,North,353,4.0,12.0,76,0.00,,,0.00,0.000000,,2013-04-12 04:03:00,
2013-04-11 22:33:00,29.0,22.0,-100.00,North,4,4.0,10.0,74,0.00,,,0.00,0.000000,,2013-04-12 04:33:00,
2013-04-11 22:43:00,29.0,22.0,-100.00,North,4,4.0,10.0,74,0.00,,,0.00,0.000000,,2013-04-12 04:43:00,
2013-04-11 22:53:00,29.0,22.0,-100.00,North,4,4.0,10.0,74,0.00,,,0.00,0.000000,,2013-04-12 04:53:00,
2013-04-11 23:03:00,29.0,22.0,-100.00,North,4,4.0,10.0,74,0.00,,,0.00,0.000000,,2013-04-12 05:03:00,
2013-04-11 23:32:00,28.0,21.0,-100.00,South,179,0.0,9.0,76,0.00,,,0.00,0.000000,,2013-04-12 05:32:00,
2013-04-11 23:42:00,28.0,21.0,-100.00,South,179,0.0,9.0,76,0.00,,,0.00,0.000000,,2013-04-12 05:42:00,
2013-04-11 23:52:00,28.0,21.0,-100.00,South,179,0.0,9.0,76,0.00,,,0.00,0.000000,,2013-04-12 05:52:00,